Braddock, New Jersey
Current Conditions -  °F | °C
As of 12:54 PM on Wednesday 26 Nov 2014 (Local Time) from KACY Reporting Station
Moderate Rain Moderate Rain  
Wind Chill: 28°   Ceiling: 800
Heat Index: 38°   Visibility: 3mi
Dew Point: 37°   Wind: 21mph
Humidity: 97%   Direction: 10°N
Pressure: 29.86"   Gusts: 28mph
Location:  39.637°N, 74.7602°W
Report Text: KACY 261754Z 01018G24KT 3SM RA BR OVC008 03/03 A2986 RMK AO2 SLP113 P0010 60047 T00330028 10061 20033 58030
Loading
Personal Weather Stations






























Interactive Weather Map New forecast layout! Learn more

10-Day Weather Forecast

Advertisements
Track Severe Weather on mobile